Howell, South Dakota
Current Conditions -  °F | °C
As of 2:53 PM on Tuesday 21 Oct 2014 (Local Time) from KPIR Reporting Station
Clear Clear  
Wind Chill: 84°   Ceiling: Unl
Heat Index: 84°   Visibility: 10mi
Dew Point: 39°   Wind: 28mph
Humidity: 20%   Direction: 180°S
Pressure: 29.77"   Gusts: 36mph
Location:  44.5493°N, 99.483°W
Report Text: KPIR 211953Z AUTO 18024G31KT 10SM CLR 29/04 A2977 RMK AO2 PK WND 17034/1942 SLP071 T02890039
Loading
Personal Weather Stations






























Interactive Weather Map
Tropical Storm Tracking
New forecast layout! Learn more

10-Day Weather Forecast

Advertisements
Track Severe Weather on mobile